Time;durP1;ratioP1;P1;durP2;ratioP2;P2;SDS_P1;SDS_P2;PMS_P1;PMS_P2;Temp;Humidity;BMP_temperature;BMP_pressure;BME280_temperature;BME280_humidity;BME280_pressure;Samples;Min_cycle;Max_cycle;Signal;HPM_P1;HPM_P2
2022/03/22 00:00:00;;;;;;;;;;;11.40;72.80;;;;;;2085335;28;19905;-69
2022/03/22 00:01:01;;;;;;;;;;;11.40;73.40;;;;;;2084235;28;19912;-69
2022/03/22 00:02:01;;;;;;;;;;;11.40;70.90;;;;;;2083653;28;19916;-69
2022/03/22 00:03:04;;;;;;;;;;;11.40;71.70;;;;;;2082267;28;20557;-69
2022/03/22 00:04:04;;;;;;;;;;;11.40;70.60;;;;;;2080840;28;20408;-69
2022/03/22 00:05:05;;;;;;;;;;;11.40;70.00;;;;;;2081995;28;20311;-69
2022/03/22 00:06:05;;;;;;;;;;;11.40;70.70;;;;;;2078713;28;19952;-69
2022/03/22 00:07:07;;;;;;;;;;;11.40;70.90;;;;;;2081447;28;19916;-69
2022/03/22 00:08:11;;;;;;;;;;;11.40;71.50;;;;;;2077601;28;19954;-69
2022/03/22 00:09:12;;;;;;;;;;;11.30;72.60;;;;;;2082788;28;20009;-69
2022/03/22 00:10:14;;;;;;;;;;;11.30;71.70;;;;;;2083980;28;19913;-69
2022/03/22 00:11:14;;;;;;;;;;;11.30;70.60;;;;;;2080983;28;19992;-70
2022/03/22 00:12:15;;;;;;;;;;;11.30;69.90;;;;;;2079833;28;19905;-69
2022/03/22 00:13:16;;;;;;;;;;;11.30;70.40;;;;;;2081213;28;19963;-69
2022/03/22 00:14:17;;;;;;;;;;;11.30;71.00;;;;;;2080994;28;20083;-69
2022/03/22 00:15:17;;;;;;;;;;;11.30;68.70;;;;;;2077759;28;19932;-69
2022/03/22 00:16:18;;;;;;;;;;;11.30;68.60;;;;;;2081906;28;19967;-69
2022/03/22 00:17:18;;;;;;;;;;;11.30;68.90;;;;;;2083304;28;19912;-69
2022/03/22 00:18:19;;;;;;;;;;;11.30;70.00;;;;;;2083739;28;20357;-69
2022/03/22 00:19:20;;;;;;;;;;;11.30;70.10;;;;;;2081209;28;19910;-69
2022/03/22 00:20:20;;;;;;;;;;;11.30;70.50;;;;;;2082559;28;19905;-69
2022/03/22 00:21:21;;;;;;;;;;;11.30;69.30;;;;;;2080111;28;19905;-69
2022/03/22 00:22:21;;;;;;;;;;;11.30;68.80;;;;;;2077990;28;20396;-69
2022/03/22 00:23:22;;;;;;;;;;;11.30;68.70;;;;;;2082220;28;19976;-69
2022/03/22 00:24:22;;;;;;;;;;;11.20;68.90;;;;;;2074318;28;19918;-69
2022/03/22 00:25:23;;;;;;;;;;;11.20;68.60;;;;;;2080964;28;19960;-69
2022/03/22 00:26:24;;;;;;;;;;;11.20;70.00;;;;;;2083838;28;20317;-69
2022/03/22 00:27:24;;;;;;;;;;;11.20;69.70;;;;;;2080251;28;20321;-69
2022/03/22 00:28:25;;;;;;;;;;;11.20;69.80;;;;;;2082157;28;19991;-69
2022/03/22 00:29:25;;;;;;;;;;;11.20;69.50;;;;;;2082004;28;19913;-70
2022/03/22 00:30:27;;;;;;;;;;;11.20;70.00;;;;;;2078459;28;19910;-69
2022/03/22 00:31:28;;;;;;;;;;;11.10;69.30;;;;;;2079725;28;19927;-69
2022/03/22 00:32:30;;;;;;;;;;;11.10;70.40;;;;;;2080356;28;19960;-69
2022/03/22 00:33:31;;;;;;;;;;;11.10;70.20;;;;;;2079755;28;19912;-69
2022/03/22 00:34:31;;;;;;;;;;;11.10;70.00;;;;;;2083215;28;19920;-69
2022/03/22 00:35:35;;;;;;;;;;;11.10;68.40;;;;;;2079762;28;19905;-69
2022/03/22 00:36:36;;;;;;;;;;;11.10;69.90;;;;;;2084366;28;19909;-69
2022/03/22 00:37:43;;;;;;;;;;;11.00;70.60;;;;;;2082079;28;19912;-69
2022/03/22 00:38:43;;;;;;;;;;;11.00;70.90;;;;;;2077188;28;19909;-69
2022/03/22 00:39:45;;;;;;;;;;;11.00;71.20;;;;;;2084287;28;19940;-69
2022/03/22 00:40:46;;;;;;;;;;;11.00;70.70;;;;;;2081946;28;20372;-69
2022/03/22 00:41:46;;;;;;;;;;;11.00;70.80;;;;;;2082280;28;20032;-69
2022/03/22 00:42:47;;;;;;;;;;;10.90;70.50;;;;;;2084880;28;19909;-69
2022/03/22 00:43:48;;;;;;;;;;;10.90;69.90;;;;;;2083992;28;19932;-69
2022/03/22 00:44:48;;;;;;;;;;;10.90;69.90;;;;;;2081632;28;19905;-69
2022/03/22 00:45:49;;;;;;;;;;;11.00;70.50;;;;;;2081642;28;20337;-69
2022/03/22 00:46:50;;;;;;;;;;;10.90;70.00;;;;;;2079248;28;19952;-69
2022/03/22 00:47:52;;;;;;;;;;;10.90;70.90;;;;;;2084433;28;19970;-69
2022/03/22 00:48:52;;;;;;;;;;;10.90;70.50;;;;;;2082966;28;20357;-69
2022/03/22 00:49:53;;;;;;;;;;;10.90;70.20;;;;;;2081412;28;20254;-69
2022/03/22 00:50:53;;;;;;;;;;;10.80;71.00;;;;;;2082173;28;19905;-69
2022/03/22 00:51:54;;;;;;;;;;;10.80;72.00;;;;;;2081662;28;19913;-69
2022/03/22 00:52:56;;;;;;;;;;;10.80;72.30;;;;;;2080340;28;20315;-69
2022/03/22 00:54:02;;;;;;;;;;;10.80;72.60;;;;;;2080159;28;20413;-69
2022/03/22 00:55:06;;;;;;;;;;;10.80;71.60;;;;;;2077562;28;19951;-69
2022/03/22 00:56:08;;;;;;;;;;;10.80;72.90;;;;;;2082985;28;19915;-69
2022/03/22 00:57:08;;;;;;;;;;;10.70;73.10;;;;;;2078011;28;20020;-69
2022/03/22 00:58:09;;;;;;;;;;;10.70;73.20;;;;;;2083331;28;19909;-71
2022/03/22 01:00:29;;;;;;;;;;;10.60;73.90;;;;;;2079629;28;19951;-69
2022/03/22 01:01:30;;;;;;;;;;;10.60;74.60;;;;;;2078190;28;19909;-69
2022/03/22 01:02:31;;;;;;;;;;;10.60;75.10;;;;;;2080954;28;19945;-69
2022/03/22 01:03:32;;;;;;;;;;;10.60;76.00;;;;;;2080249;28;19914;-69
2022/03/22 01:04:32;;;;;;;;;;;10.50;76.30;;;;;;2083049;28;19913;-69
2022/03/22 01:05:34;;;;;;;;;;;10.50;74.60;;;;;;2082492;28;20463;-69
2022/03/22 01:06:34;;;;;;;;;;;10.50;75.90;;;;;;2080562;28;20421;-69
2022/03/22 01:07:35;;;;;;;;;;;10.50;76.40;;;;;;2079715;28;20318;-69
2022/03/22 01:08:37;;;;;;;;;;;10.50;77.10;;;;;;2080308;28;19991;-69
2022/03/22 01:09:37;;;;;;;;;;;10.50;77.00;;;;;;2077776;28;19909;-69
2022/03/22 01:10:39;;;;;;;;;;;10.40;77.00;;;;;;2080591;28;19905;-69
2022/03/22 01:11:42;;;;;;;;;;;10.40;78.40;;;;;;2077627;28;19909;-69
2022/03/22 01:12:43;;;;;;;;;;;10.40;78.00;;;;;;2082289;28;19908;-69
2022/03/22 01:13:44;;;;;;;;;;;10.40;78.70;;;;;;2082734;28;19916;-69
2022/03/22 01:14:44;;;;;;;;;;;10.40;78.40;;;;;;2081429;28;19917;-69
2022/03/22 01:15:45;;;;;;;;;;;10.30;78.30;;;;;;2081200;28;19909;-69
2022/03/22 01:16:45;;;;;;;;;;;10.40;78.90;;;;;;2079194;28;19920;-69
2022/03/22 01:17:47;;;;;;;;;;;10.30;78.50;;;;;;2078011;28;20323;-69
2022/03/22 01:18:48;;;;;;;;;;;10.30;78.70;;;;;;2084588;28;19931;-69
2022/03/22 01:19:48;;;;;;;;;;;10.20;78.30;;;;;;2081273;28;19905;-69
2022/03/22 01:20:51;;;;;;;;;;;10.20;79.50;;;;;;2081979;28;19909;-69
2022/03/22 01:21:52;;;;;;;;;;;10.20;80.60;;;;;;2082580;28;19928;-69
2022/03/22 01:22:53;;;;;;;;;;;10.10;80.00;;;;;;2082545;28;19905;-69
2022/03/22 01:23:54;;;;;;;;;;;10.10;79.00;;;;;;2080967;28;20327;-69
2022/03/22 01:24:54;;;;;;;;;;;10.10;79.40;;;;;;2079159;28;19979;-69
2022/03/22 01:25:55;;;;;;;;;;;10.10;80.90;;;;;;2079156;28;20008;-69
2022/03/22 01:26:55;;;;;;;;;;;10.00;81.30;;;;;;2082007;28;19931;-69
2022/03/22 01:27:56;;;;;;;;;;;10.00;81.70;;;;;;2082069;28;19923;-69
2022/03/22 01:28:57;;;;;;;;;;;10.00;81.10;;;;;;2082266;28;19905;-69
2022/03/22 01:29:57;;;;;;;;;;;10.00;81.50;;;;;;2081590;28;19913;-69
2022/03/22 01:30:57;;;;;;;;;;;10.00;81.90;;;;;;2079410;28;19955;-69
2022/03/22 01:31:59;;;;;;;;;;;9.90;81.70;;;;;;2079023;28;19915;-69
2022/03/22 01:33:00;;;;;;;;;;;9.90;81.90;;;;;;2076442;28;19905;-69
2022/03/22 01:34:00;;;;;;;;;;;9.90;82.70;;;;;;2078078;28;19911;-69
2022/03/22 01:35:01;;;;;;;;;;;9.90;82.90;;;;;;2080999;28;19909;-69
2022/03/22 01:36:02;;;;;;;;;;;9.90;83.20;;;;;;2081705;28;19952;-69
2022/03/22 01:37:02;;;;;;;;;;;9.90;83.20;;;;;;2081919;28;19905;-69
2022/03/22 01:38:03;;;;;;;;;;;9.90;83.00;;;;;;2080828;28;19971;-69
2022/03/22 01:39:04;;;;;;;;;;;9.80;82.90;;;;;;2081875;28;19995;-69
2022/03/22 01:40:05;;;;;;;;;;;9.80;83.20;;;;;;2079191;28;19921;-69
2022/03/22 01:41:05;;;;;;;;;;;9.80;82.60;;;;;;2081006;28;19955;-69
2022/03/22 01:42:06;;;;;;;;;;;9.80;83.40;;;;;;2084144;28;19909;-69
2022/03/22 01:43:07;;;;;;;;;;;9.70;83.70;;;;;;2083109;28;19915;-69
2022/03/22 01:44:07;;;;;;;;;;;9.70;84.20;;;;;;2083717;28;20002;-69
2022/03/22 01:45:09;;;;;;;;;;;9.70;83.70;;;;;;2083439;28;19916;-69
2022/03/22 01:46:12;;;;;;;;;;;9.70;83.80;;;;;;2078916;28;19955;-69
2022/03/22 01:47:14;;;;;;;;;;;9.60;84.40;;;;;;2081545;28;19940;-69
2022/03/22 01:48:14;;;;;;;;;;;9.60;84.00;;;;;;2078416;28;19913;-68
2022/03/22 01:49:15;;;;;;;;;;;9.60;84.70;;;;;;2080472;28;19916;-68
2022/03/22 01:50:17;;;;;;;;;;;9.60;83.30;;;;;;2081850;28;19909;-68
2022/03/22 01:51:20;;;;;;;;;;;9.60;84.20;;;;;;2084029;28;19924;-68
2022/03/22 01:52:23;;;;;;;;;;;9.50;86.30;;;;;;2083910;28;19913;-69
2022/03/22 01:53:24;;;;;;;;;;;9.50;86.90;;;;;;2080342;28;19913;-69
2022/03/22 01:54:24;;;;;;;;;;;9.50;88.20;;;;;;2080126;28;19913;-69
2022/03/22 01:55:25;;;;;;;;;;;9.50;88.40;;;;;;2080309;28;19959;-69
2022/03/22 01:56:26;;;;;;;;;;;9.40;87.90;;;;;;2078212;28;19913;-69
2022/03/22 01:57:30;;;;;;;;;;;9.40;88.20;;;;;;2080282;28;19912;-69
2022/03/22 01:58:31;;;;;;;;;;;9.40;88.50;;;;;;2077251;28;19905;-69
2022/03/22 01:59:31;;;;;;;;;;;9.40;88.40;;;;;;2085899;28;19905;-69
2022/03/22 02:00:31;;;;;;;;;;;9.40;88.50;;;;;;2083539;28;20213;-69
2022/03/22 02:06:54;;;;;;;;;;;9.30;90.40;;;;;;2079858;28;19940;-69
2022/03/22 02:07:55;;;;;;;;;;;9.20;90.40;;;;;;2082427;28;19913;-69
2022/03/22 02:08:56;;;;;;;;;;;9.20;90.60;;;;;;2083375;28;20003;-69
2022/03/22 02:09:56;;;;;;;;;;;9.20;91.00;;;;;;2080374;28;19906;-69
2022/03/22 02:10:58;;;;;;;;;;;9.20;91.20;;;;;;2084995;28;19905;-69
2022/03/22 02:11:59;;;;;;;;;;;9.20;91.40;;;;;;2079417;28;19944;-69
2022/03/22 02:13:00;;;;;;;;;;;9.10;91.30;;;;;;2081933;28;20792;-69
2022/03/22 02:14:01;;;;;;;;;;;9.10;91.20;;;;;;2076994;28;19914;-69
2022/03/22 02:15:01;;;;;;;;;;;9.10;91.10;;;;;;2076141;28;19921;-69
2022/03/22 02:16:02;;;;;;;;;;;9.10;91.30;;;;;;2079595;28;19951;-69
2022/03/22 02:17:06;;;;;;;;;;;9.00;91.50;;;;;;2080493;28;19909;-69
2022/03/22 02:18:07;;;;;;;;;;;9.00;91.60;;;;;;2079348;28;19996;-69
2022/03/22 02:19:09;;;;;;;;;;;9.00;91.80;;;;;;2076434;28;19909;-69
2022/03/22 02:20:09;;;;;;;;;;;9.00;92.20;;;;;;2077167;28;19909;-69
2022/03/22 02:21:14;;;;;;;;;;;8.90;92.20;;;;;;2079587;28;19959;-69
2022/03/22 02:22:18;;;;;;;;;;;8.90;92.40;;;;;;2082429;28;19909;-69
2022/03/22 02:23:21;;;;;;;;;;;8.90;92.50;;;;;;2082074;28;19909;-69
2022/03/22 02:24:21;;;;;;;;;;;8.90;92.60;;;;;;2082529;28;20325;-69
2022/03/22 02:25:22;;;;;;;;;;;8.90;92.70;;;;;;2082380;28;19962;-69
2022/03/22 02:26:24;;;;;;;;;;;8.80;93.00;;;;;;2079668;28;19912;-69
2022/03/22 02:27:27;;;;;;;;;;;8.90;93.20;;;;;;2078349;28;19998;-69
2022/03/22 02:28:29;;;;;;;;;;;8.80;93.80;;;;;;2080708;28;19905;-69
2022/03/22 02:29:30;;;;;;;;;;;8.80;93.70;;;;;;2078312;28;19909;-69
2022/03/22 02:30:31;;;;;;;;;;;8.80;93.60;;;;;;2078958;28;19905;-69
2022/03/22 02:31:32;;;;;;;;;;;8.70;93.90;;;;;;2082227;28;19914;-69
2022/03/22 02:32:32;;;;;;;;;;;8.70;94.10;;;;;;2080545;28;19909;-69
2022/03/22 02:33:33;;;;;;;;;;;8.70;94.10;;;;;;2082072;28;19908;-69
2022/03/22 02:34:40;;;;;;;;;;;8.70;94.20;;;;;;2083069;28;20565;-69
2022/03/22 02:35:41;;;;;;;;;;;8.60;94.70;;;;;;2079549;28;19918;-69
2022/03/22 02:36:42;;;;;;;;;;;8.60;94.90;;;;;;2081441;28;19959;-69
2022/03/22 02:37:42;;;;;;;;;;;8.60;95.10;;;;;;2078584;28;19996;-69
2022/03/22 02:38:43;;;;;;;;;;;8.60;95.40;;;;;;2085008;28;19912;-69
2022/03/22 02:39:44;;;;;;;;;;;8.60;95.30;;;;;;2079040;28;19932;-69
2022/03/22 02:40:45;;;;;;;;;;;8.60;95.40;;;;;;2082482;28;19942;-69
2022/03/22 02:41:48;;;;;;;;;;;8.50;95.70;;;;;;2079569;28;19913;-69
2022/03/22 02:42:50;;;;;;;;;;;8.50;95.60;;;;;;2083680;28;20388;-69
2022/03/22 02:43:52;;;;;;;;;;;8.50;95.70;;;;;;2082303;28;19909;-69
2022/03/22 02:44:52;;;;;;;;;;;8.50;95.80;;;;;;2080409;28;19956;-69
2022/03/22 02:45:53;;;;;;;;;;;8.50;96.00;;;;;;2079884;28;20383;-69
2022/03/22 02:46:53;;;;;;;;;;;8.50;96.10;;;;;;2084817;28;19904;-69
2022/03/22 02:47:54;;;;;;;;;;;8.50;96.20;;;;;;2084790;28;20134;-69
2022/03/22 02:48:54;;;;;;;;;;;8.40;96.60;;;;;;2082499;28;19913;-69
2022/03/22 02:49:55;;;;;;;;;;;8.40;96.90;;;;;;2080922;28;20459;-69
2022/03/22 02:50:56;;;;;;;;;;;8.40;97.20;;;;;;2081097;28;19913;-69
2022/03/22 02:51:56;;;;;;;;;;;8.40;97.20;;;;;;2082543;28;20386;-69
2022/03/22 02:52:57;;;;;;;;;;;8.30;97.30;;;;;;2080554;28;20284;-69
2022/03/22 02:53:57;;;;;;;;;;;8.30;97.90;;;;;;2083598;28;19916;-69
2022/03/22 02:54:58;;;;;;;;;;;8.30;98.10;;;;;;2085653;28;19905;-69
2022/03/22 02:55:58;;;;;;;;;;;8.30;97.90;;;;;;2083562;28;19913;-69
2022/03/22 02:56:59;;;;;;;;;;;8.30;97.70;;;;;;2082850;28;20356;-69
2022/03/22 02:57:59;;;;;;;;;;;8.20;97.60;;;;;;2082424;28;19915;-69
2022/03/22 02:59:00;;;;;;;;;;;8.20;98.00;;;;;;2078595;28;19951;-69
2022/03/22 03:00:03;;;;;;;;;;;8.20;98.80;;;;;;2081136;28;20641;-69
2022/03/22 03:01:04;;;;;;;;;;;8.20;98.70;;;;;;2078758;28;19905;-69
2022/03/22 03:02:05;;;;;;;;;;;8.10;98.50;;;;;;2083811;28;19916;-69
2022/03/22 03:03:06;;;;;;;;;;;8.10;99.00;;;;;;2084261;28;19905;-69
2022/03/22 03:04:06;;;;;;;;;;;8.10;98.70;;;;;;2083158;28;19952;-69
2022/03/22 03:05:08;;;;;;;;;;;8.10;99.40;;;;;;2082710;28;20511;-69
2022/03/22 03:06:08;;;;;;;;;;;8.10;99.70;;;;;;2079187;28;19916;-69
2022/03/22 03:07:09;;;;;;;;;;;8.00;99.90;;;;;;2082116;28;20350;-69
2022/03/22 03:08:09;;;;;;;;;;;8.00;99.60;;;;;;2080682;28;19967;-69
2022/03/22 03:09:10;;;;;;;;;;;8.00;99.50;;;;;;2078031;28;19916;-69
2022/03/22 03:10:11;;;;;;;;;;;8.00;99.20;;;;;;2082856;28;19908;-69
2022/03/22 03:11:12;;;;;;;;;;;8.00;99.50;;;;;;2083297;28;20253;-69
2022/03/22 03:12:13;;;;;;;;;;;8.00;99.10;;;;;;2081095;28;19909;-69
2022/03/22 03:13:13;;;;;;;;;;;8.00;98.30;;;;;;2083455;28;19909;-69
2022/03/22 03:15:33;;;;;;;;;;;7.90;98.10;;;;;;2080031;28;20306;-69
2022/03/22 03:16:33;;;;;;;;;;;7.90;99.10;;;;;;2078883;28;19952;-69
2022/03/22 03:17:35;;;;;;;;;;;7.90;99.10;;;;;;2078356;28;19913;-69
2022/03/22 03:18:35;;;;;;;;;;;7.90;99.50;;;;;;2081596;28;19967;-69
2022/03/22 03:19:35;;;;;;;;;;;7.90;99.80;;;;;;2080943;28;20376;-69
2022/03/22 03:20:36;;;;;;;;;;;7.90;99.90;;;;;;2079873;28;19999;-69
2022/03/22 03:21:37;;;;;;;;;;;7.90;99.40;;;;;;2080819;28;19905;-69
2022/03/22 03:22:37;;;;;;;;;;;7.80;99.10;;;;;;2080129;28;19912;-69
2022/03/22 03:23:37;;;;;;;;;;;7.80;98.80;;;;;;2082270;28;19905;-69
2022/03/22 03:24:38;;;;;;;;;;;7.80;97.80;;;;;;2078171;28;19913;-69
2022/03/22 03:25:39;;;;;;;;;;;7.80;98.90;;;;;;2084384;28;19913;-69
2022/03/22 03:26:40;;;;;;;;;;;7.80;99.60;;;;;;2084811;28;19913;-69
2022/03/22 03:27:41;;;;;;;;;;;7.80;99.40;;;;;;2081879;28;19908;-69
2022/03/22 03:28:41;;;;;;;;;;;7.80;98.50;;;;;;2082085;28;20011;-69
2022/03/22 03:29:42;;;;;;;;;;;7.80;98.80;;;;;;2081331;28;19912;-69
2022/03/22 03:30:42;;;;;;;;;;;7.80;99.60;;;;;;2079807;28;20292;-69
2022/03/22 03:31:43;;;;;;;;;;;7.70;99.10;;;;;;2078598;28;19905;-69
2022/03/22 03:32:43;;;;;;;;;;;7.70;98.80;;;;;;2078217;28;19912;-69
2022/03/22 03:33:44;;;;;;;;;;;7.70;99.60;;;;;;2077803;28;19913;-69
2022/03/22 03:34:44;;;;;;;;;;;7.70;99.00;;;;;;2084461;28;20352;-69
2022/03/22 03:35:45;;;;;;;;;;;7.70;99.80;;;;;;2082333;28;19943;-69
2022/03/22 03:36:45;;;;;;;;;;;7.70;99.70;;;;;;2081085;28;19918;-69
2022/03/22 03:37:46;;;;;;;;;;;7.70;99.70;;;;;;2084450;28;20398;-69
2022/03/22 03:38:46;;;;;;;;;;;7.70;99.60;;;;;;2082487;28;19915;-69
2022/03/22 03:39:46;;;;;;;;;;;7.70;99.40;;;;;;2081356;28;19905;-69
2022/03/22 03:42:06;;;;;;;;;;;7.70;99.90;;;;;;2084744;28;19909;-69
2022/03/22 03:43:07;;;;;;;;;;;7.70;99.90;;;;;;2083101;28;19905;-69
2022/03/22 03:47:04;;;;;;;;;;;7.60;99.90;;;;;;2080869;28;20368;-69
2022/03/22 03:48:04;;;;;;;;;;;7.60;99.90;;;;;;2078328;28;20354;-69
2022/03/22 03:49:06;;;;;;;;;;;7.60;99.90;;;;;;2080742;28;20257;-69
2022/03/22 03:50:07;;;;;;;;;;;7.60;99.90;;;;;;2084643;28;19971;-69
2022/03/22 03:51:08;;;;;;;;;;;7.50;99.90;;;;;;2077064;28;19905;-69
2022/03/22 03:52:15;;;;;;;;;;;7.50;99.90;;;;;;2083943;28;19944;-69
2022/03/22 03:53:15;;;;;;;;;;;7.50;99.90;;;;;;2080598;28;20384;-69
2022/03/22 03:54:16;;;;;;;;;;;7.50;99.90;;;;;;2079504;28;20340;-69
2022/03/22 03:55:16;;;;;;;;;;;7.50;99.90;;;;;;2079189;28;20323;-69
2022/03/22 03:56:17;;;;;;;;;;;7.50;99.90;;;;;;2077323;28;20009;-69
2022/03/22 03:57:18;;;;;;;;;;;7.50;99.90;;;;;;2081523;28;19909;-69
2022/03/22 03:58:18;;;;;;;;;;;7.50;99.90;;;;;;2082144;28;19955;-69
2022/03/22 03:59:19;;;;;;;;;;;7.50;99.90;;;;;;2081281;28;19905;-69
2022/03/22 04:00:19;;;;;;;;;;;7.50;99.90;;;;;;2083683;28;20597;-69
2022/03/22 04:01:21;;;;;;;;;;;7.50;99.90;;;;;;2085840;28;19913;-69
2022/03/22 04:02:24;;;;;;;;;;;7.50;99.90;;;;;;2082347;28;19909;-69
2022/03/22 04:03:25;;;;;;;;;;;7.50;99.90;;;;;;2079250;28;19916;-69
2022/03/22 04:04:25;;;;;;;;;;;7.50;99.90;;;;;;2080144;28;19996;-69
2022/03/22 04:05:26;;;;;;;;;;;7.50;99.90;;;;;;2083685;28;19927;-69
2022/03/22 04:06:27;;;;;;;;;;;7.50;99.90;;;;;;2082186;28;19992;-69
2022/03/22 04:07:28;;;;;;;;;;;7.50;99.90;;;;;;2084338;28;20011;-69
2022/03/22 04:08:28;;;;;;;;;;;7.50;99.90;;;;;;2083185;28;19986;-69
2022/03/22 04:09:29;;;;;;;;;;;7.50;99.90;;;;;;2079518;28;19913;-69
2022/03/22 04:10:29;;;;;;;;;;;7.50;99.90;;;;;;2081968;28;19913;-69
2022/03/22 04:11:30;;;;;;;;;;;7.40;99.90;;;;;;2077722;28;19905;-69
2022/03/22 04:12:31;;;;;;;;;;;7.40;99.90;;;;;;2080712;28;19994;-69
2022/03/22 04:13:32;;;;;;;;;;;7.40;99.90;;;;;;2084988;28;19909;-69
2022/03/22 04:14:32;;;;;;;;;;;7.40;99.90;;;;;;2082463;28;19904;-69
2022/03/22 04:15:33;;;;;;;;;;;7.40;99.90;;;;;;2085963;28;20356;-69
2022/03/22 04:16:34;;;;;;;;;;;7.40;99.90;;;;;;2081937;28;19970;-69
2022/03/22 04:17:34;;;;;;;;;;;7.30;99.90;;;;;;2084510;28;19913;-69
2022/03/22 04:18:34;;;;;;;;;;;7.30;99.90;;;;;;2082112;28;20323;-69
2022/03/22 04:19:35;;;;;;;;;;;7.30;99.90;;;;;;2078055;28;19909;-69
2022/03/22 04:20:36;;;;;;;;;;;7.30;99.90;;;;;;2084579;28;19924;-69
2022/03/22 04:21:37;;;;;;;;;;;7.30;99.90;;;;;;2084236;28;19911;-69
2022/03/22 04:22:37;;;;;;;;;;;7.30;99.90;;;;;;2082011;28;19905;-69
2022/03/22 04:23:38;;;;;;;;;;;7.30;99.90;;;;;;2077153;28;19948;-69
2022/03/22 04:24:38;;;;;;;;;;;7.30;99.90;;;;;;2079651;28;19966;-69
2022/03/22 04:25:39;;;;;;;;;;;7.20;99.90;;;;;;2078156;28;19996;-69
2022/03/22 04:26:40;;;;;;;;;;;7.20;99.90;;;;;;2080701;28;19916;-69
2022/03/22 04:32:57;;;;;;;;;;;7.20;99.90;;;;;;2078132;28;19906;-69
2022/03/22 04:33:57;;;;;;;;;;;7.10;99.90;;;;;;2078438;28;19905;-69
2022/03/22 04:34:58;;;;;;;;;;;7.10;99.90;;;;;;2079170;28;19941;-69
2022/03/22 04:35:59;;;;;;;;;;;7.10;99.90;;;;;;2079273;28;19912;-69
2022/03/22 04:37:01;;;;;;;;;;;7.10;99.90;;;;;;2084048;28;19913;-69
2022/03/22 04:38:01;;;;;;;;;;;7.10;99.90;;;;;;2083304;28;19909;-69
2022/03/22 04:39:02;;;;;;;;;;;7.00;99.90;;;;;;2082605;28;19905;-69
2022/03/22 04:40:03;;;;;;;;;;;7.00;99.90;;;;;;2080727;28;20236;-69
2022/03/22 04:41:04;;;;;;;;;;;7.00;99.90;;;;;;2078629;28;19932;-69
2022/03/22 04:42:04;;;;;;;;;;;7.00;99.90;;;;;;2078944;28;19913;-69
2022/03/22 04:43:06;;;;;;;;;;;7.00;99.90;;;;;;2081413;28;19916;-69
2022/03/22 04:44:07;;;;;;;;;;;7.00;99.90;;;;;;2080990;28;19918;-69
2022/03/22 04:45:08;;;;;;;;;;;7.00;99.90;;;;;;2083768;28;19999;-69
2022/03/22 04:46:08;;;;;;;;;;;6.90;99.90;;;;;;2079624;28;20429;-69
2022/03/22 04:47:09;;;;;;;;;;;6.90;99.90;;;;;;2083103;28;19909;-69
2022/03/22 04:48:09;;;;;;;;;;;6.90;99.90;;;;;;2079000;28;19986;-69
2022/03/22 04:49:10;;;;;;;;;;;6.90;99.90;;;;;;2082491;28;19920;-69
2022/03/22 04:50:11;;;;;;;;;;;6.90;99.90;;;;;;2080575;28;19923;-69
2022/03/22 04:56:45;;;;;;;;;;;6.80;99.90;;;;;;2079503;28;20698;-69
2022/03/22 04:57:46;;;;;;;;;;;6.80;99.90;;;;;;2078730;28;19948;-69
2022/03/22 04:58:48;;;;;;;;;;;6.80;99.90;;;;;;2077320;28;19909;-69
2022/03/22 04:59:49;;;;;;;;;;;6.80;99.90;;;;;;2076843;28;20474;-69
2022/03/22 05:00:49;;;;;;;;;;;6.80;99.90;;;;;;2084558;28;20307;-69
2022/03/22 05:01:51;;;;;;;;;;;6.70;99.90;;;;;;2082249;28;19932;-69
2022/03/22 05:02:52;;;;;;;;;;;6.70;99.90;;;;;;2082098;28;19908;-69
2022/03/22 05:03:52;;;;;;;;;;;6.70;99.90;;;;;;2083083;28;20395;-69
2022/03/22 05:04:53;;;;;;;;;;;6.70;99.90;;;;;;2082054;28;20019;-69
2022/03/22 05:07:13;;;;;;;;;;;6.60;99.90;;;;;;2080802;28;19905;-69
2022/03/22 05:08:13;;;;;;;;;;;6.60;99.90;;;;;;2078899;28;19913;-69
2022/03/22 05:09:13;;;;;;;;;;;6.60;99.90;;;;;;2083344;28;19912;-69
2022/03/22 05:10:14;;;;;;;;;;;6.60;99.90;;;;;;2083596;28;19936;-69
2022/03/22 05:11:14;;;;;;;;;;;6.60;99.90;;;;;;2083747;28;20000;-69
2022/03/22 05:12:15;;;;;;;;;;;6.60;99.90;;;;;;2082046;28;19909;-69
2022/03/22 05:13:16;;;;;;;;;;;6.50;99.90;;;;;;2081315;28;20110;-69
2022/03/22 05:14:16;;;;;;;;;;;6.50;99.90;;;;;;2077795;28;19913;-69
2022/03/22 05:15:17;;;;;;;;;;;6.50;99.90;;;;;;2080052;28;19909;-69
2022/03/22 05:16:17;;;;;;;;;;;6.50;99.90;;;;;;2078859;28;19913;-69
2022/03/22 05:17:23;;;;;;;;;;;6.50;99.90;;;;;;2087636;28;19904;-69
2022/03/22 05:18:26;;;;;;;;;;;6.50;99.90;;;;;;2082898;28;20406;-69
2022/03/22 05:19:27;;;;;;;;;;;6.40;99.90;;;;;;2077911;28;20348;-69
2022/03/22 05:20:28;;;;;;;;;;;6.40;99.90;;;;;;2077075;28;20265;-69
2022/03/22 05:21:29;;;;;;;;;;;6.40;99.90;;;;;;2080237;28;19915;-69
2022/03/22 05:22:29;;;;;;;;;;;6.40;99.90;;;;;;2076888;28;19909;-69
2022/03/22 05:23:30;;;;;;;;;;;6.40;99.90;;;;;;2083261;28;19905;-69
2022/03/22 05:24:31;;;;;;;;;;;6.40;99.90;;;;;;2083636;28;20030;-69
2022/03/22 05:25:31;;;;;;;;;;;6.30;99.90;;;;;;2084587;28;19904;-69
2022/03/22 05:26:32;;;;;;;;;;;6.40;99.90;;;;;;2083111;28;19913;-69
2022/03/22 05:27:32;;;;;;;;;;;6.30;99.90;;;;;;2080394;28;19908;-69
2022/03/22 05:28:33;;;;;;;;;;;6.30;99.90;;;;;;2079534;28;20261;-69
2022/03/22 05:29:34;;;;;;;;;;;6.30;99.90;;;;;;2080151;28;20015;-69
2022/03/22 05:30:34;;;;;;;;;;;6.30;99.90;;;;;;2077493;28;19936;-69
2022/03/22 05:31:35;;;;;;;;;;;6.30;99.90;;;;;;2085273;28;19955;-69
2022/03/22 05:32:36;;;;;;;;;;;6.30;99.90;;;;;;2080620;28;19913;-69
2022/03/22 05:33:36;;;;;;;;;;;6.30;99.90;;;;;;2082595;28;20280;-69
2022/03/22 05:34:37;;;;;;;;;;;6.30;99.90;;;;;;2082978;28;20327;-69
2022/03/22 05:35:37;;;;;;;;;;;6.30;99.90;;;;;;2079782;28;19905;-69
2022/03/22 05:36:38;;;;;;;;;;;6.30;99.90;;;;;;2082248;28;20534;-69
2022/03/22 05:37:38;;;;;;;;;;;6.20;99.90;;;;;;2077449;28;19992;-69
2022/03/22 05:38:38;;;;;;;;;;;6.20;99.90;;;;;;2077540;28;19959;-69
2022/03/22 05:39:39;;;;;;;;;;;6.20;99.90;;;;;;2083411;28;20352;-69
2022/03/22 05:40:40;;;;;;;;;;;6.20;99.90;;;;;;2082330;28;19912;-69
2022/03/22 05:41:41;;;;;;;;;;;6.20;99.90;;;;;;2082202;28;20462;-69
2022/03/22 05:42:42;;;;;;;;;;;6.20;99.90;;;;;;2082138;28;20260;-69
2022/03/22 05:43:42;;;;;;;;;;;6.20;99.90;;;;;;2079726;28;20003;-69
2022/03/22 05:44:43;;;;;;;;;;;6.20;99.90;;;;;;2082122;28;19905;-69
2022/03/22 05:45:48;;;;;;;;;;;6.20;99.90;;;;;;2077853;28;19909;-68
2022/03/22 05:46:49;;;;;;;;;;;6.20;99.90;;;;;;2079440;28;19909;-68
2022/03/22 05:47:50;;;;;;;;;;;6.20;99.90;;;;;;2082754;28;19909;-68
2022/03/22 05:48:50;;;;;;;;;;;6.20;99.90;;;;;;2083327;28;19927;-68
2022/03/22 05:49:51;;;;;;;;;;;6.10;99.90;;;;;;2083266;28;19972;-69
2022/03/22 05:50:51;;;;;;;;;;;6.10;99.90;;;;;;2080203;28;19956;-69
2022/03/22 05:51:53;;;;;;;;;;;6.10;99.90;;;;;;2080147;28;20262;-69
2022/03/22 05:52:53;;;;;;;;;;;6.10;99.90;;;;;;2079144;28;19928;-69
2022/03/22 05:53:54;;;;;;;;;;;6.10;99.90;;;;;;2081724;28;19909;-69
2022/03/22 05:54:54;;;;;;;;;;;6.10;99.90;;;;;;2078361;28;20522;-69
2022/03/22 05:55:55;;;;;;;;;;;6.10;99.90;;;;;;2078529;28;19959;-69
2022/03/22 05:56:55;;;;;;;;;;;6.10;99.90;;;;;;2083106;28;19935;-69
2022/03/22 05:57:56;;;;;;;;;;;6.10;99.90;;;;;;2080879;28;19920;-69
2022/03/22 05:58:58;;;;;;;;;;;6.10;99.90;;;;;;2079650;28;19945;-69
2022/03/22 05:59:59;;;;;;;;;;;6.10;99.90;;;;;;2075893;28;19992;-69
2022/03/22 06:01:00;;;;;;;;;;;6.10;99.90;;;;;;2083074;28;20344;-69
2022/03/22 06:02:00;;;;;;;;;;;6.10;99.90;;;;;;2080168;28;19909;-69
2022/03/22 06:03:01;;;;;;;;;;;6.10;99.90;;;;;;2079179;28;19913;-69
2022/03/22 06:04:02;;;;;;;;;;;6.10;99.90;;;;;;2080404;28;19908;-69
2022/03/22 06:05:03;;;;;;;;;;;6.10;99.90;;;;;;2079777;28;19905;-69
2022/03/22 06:06:03;;;;;;;;;;;6.10;99.90;;;;;;2078547;28;19913;-69
2022/03/22 06:07:04;;;;;;;;;;;6.10;99.90;;;;;;2081498;28;19905;-69
2022/03/22 06:08:04;;;;;;;;;;;6.10;99.90;;;;;;2082033;28;19913;-69
2022/03/22 06:09:05;;;;;;;;;;;6.10;99.90;;;;;;2083550;28;20272;-69
2022/03/22 06:10:06;;;;;;;;;;;6.10;99.90;;;;;;2081661;28;19912;-69
2022/03/22 06:11:06;;;;;;;;;;;6.10;99.90;;;;;;2081542;28;20012;-69
2022/03/22 06:12:07;;;;;;;;;;;6.10;99.90;;;;;;2082328;28;19905;-69
2022/03/22 06:13:07;;;;;;;;;;;6.10;99.90;;;;;;2078739;28;19955;-69
2022/03/22 06:14:08;;;;;;;;;;;6.10;99.90;;;;;;2083273;28;19909;-69
2022/03/22 06:15:15;;;;;;;;;;;6.10;99.90;;;;;;2083949;28;19948;-69
2022/03/22 06:16:16;;;;;;;;;;;6.10;99.90;;;;;;2081291;28;19906;-69
2022/03/22 06:17:16;;;;;;;;;;;6.20;99.90;;;;;;2083976;28;19905;-69
2022/03/22 06:18:17;;;;;;;;;;;6.10;99.90;;;;;;2081726;28;19912;-69
2022/03/22 06:19:17;;;;;;;;;;;6.20;99.90;;;;;;2079508;28;20304;-69
2022/03/22 06:20:19;;;;;;;;;;;6.20;99.90;;;;;;2081489;28;19906;-69
2022/03/22 06:21:19;;;;;;;;;;;6.20;99.90;;;;;;2083996;28;19916;-69
2022/03/22 06:22:20;;;;;;;;;;;6.20;99.90;;;;;;2082876;28;19912;-69